Oceano, California
Current Conditions -  °F | °C
As of 11:56 PM on Friday 24 Oct 2014 (Local Time) from KSBP Reporting Station
Clear Clear  
Wind Chill: 58°   Ceiling: Unl
Heat Index: 58°   Visibility: 10mi
Dew Point: 55°   Wind: 3mph
Humidity: 90%   Direction: 90°E
Pressure: 30.02"   Gusts: NA
Location:  35.1°N, 120.61°W
Report Text: KSBP 250656Z AUTO 09003KT 10SM CLR 14/13 A3002 RMK AO2 SLP163 T01440128
Loading
Personal Weather Stations






























Interactive Weather Map
Tropical Storm Tracking
New forecast layout! Learn more

10-Day Weather Forecast

Advertisements
Track Severe Weather on mobile